Airfield :
LOGIN :

Register | Disclaimer

   EN    FR    IT 

 










Legend :    VFR   Marginal VFR   IFR   Intensive IFR   Very Intensive IFR
Visi :
Ceiling :
>= 8 km
>= 3000ft
5 to 8 km
1000 to 3000 ft
1500m to 5 km
500 to 1000 ft
800 to 1500m
200 to 500 ft
< 800m
< 200 ft
Symbols :   Thunderstorms  Fog  Heavy snow  Heavy precipitations  Wind > 20 kt
SIGMETs :     Misc.  Thunderstorms  Icing  Turbulence  Mountain Waves  Volcanic Ashes







- Airport Elevation : 13 ft
- IATA code : LYX
- Download approach charts


EGMD - Lydd

CURRENT METAR :
  • 192220Z AUTO VRB03KT 8000 FEW023/// SCT031/// 12/11 Q1011

EXPIRED METARs :
  • 192150Z AUTO VRB02KT 9999 -RA BKN019/// OVC035/// 12/11 Q1011
  • 192120Z AUTO 28003KT 9999 SCT018/// BKN032/// 12/11 Q1011
  • 192050Z AUTO 30004KT 280V340 9999 BKN019/// OVC037/// 13/11 Q1011
  • 192020Z AUTO VRB01KT 9999 OVC019/// 12/11 Q1011
  • 191950Z AUTO 11003KT 9999 BKN020/// 12/11 Q1010

TAF TAF EGMD
Valid from the 19 at 21:00 until the 20 at 06:00 UTC


191956Z 1921/2006 36005KT 9999 SCT020
PROB30 1923/2005 6000
ATIS : +44 1797 322 422
No reported NOTAMs for that airfield.



MET'MAP, your aeronautical weather chart ! - Copyright ORBIFLY December 2007 - Disclaimer

ORBIFLY MET'MAP TEAM :

Programming & Development : Alexandra Zaïnal
Concept & Development : Baudouin d'Aumeries
Co-Development & Prog : Marc-Olivier Méhu
Technical & hardware support : Manuel Goepfert

Contact : metmap@orbifly.com




SOURCES & CREDITS :

   NOAA